sensor_id;sensor_type;location;lat;lon;timestamp;P1;durP1;ratioP1;P2;durP2;ratioP2
58412;SDS011;44209;52.952;6.790;2023-07-13T00:01:14;7.13;;;3.10;;
58412;SDS011;44209;52.952;6.790;2023-07-13T00:03:41;10.05;;;3.65;;
58412;SDS011;44209;52.952;6.790;2023-07-13T00:06:07;8.35;;;3.80;;
58412;SDS011;44209;52.952;6.790;2023-07-13T00:08:33;6.90;;;3.40;;
58412;SDS011;44209;52.952;6.790;2023-07-13T00:11:00;7.97;;;3.45;;
58412;SDS011;44209;52.952;6.790;2023-07-13T00:13:27;8.82;;;3.90;;
58412;SDS011;44209;52.952;6.790;2023-07-13T00:15:55;8.02;;;3.70;;
58412;SDS011;44209;52.952;6.790;2023-07-13T00:18:22;9.27;;;3.40;;
58412;SDS011;44209;52.952;6.790;2023-07-13T00:20:47;7.68;;;3.50;;
58412;SDS011;44209;52.952;6.790;2023-07-13T00:23:14;8.77;;;3.10;;
58412;SDS011;44209;52.952;6.790;2023-07-13T00:25:40;5.78;;;3.20;;
58412;SDS011;44209;52.952;6.790;2023-07-13T00:28:05;6.72;;;2.92;;
58412;SDS011;44209;52.952;6.790;2023-07-13T00:30:31;7.43;;;3.20;;
58412;SDS011;44209;52.952;6.790;2023-07-13T00:32:57;8.25;;;3.10;;
58412;SDS011;44209;52.952;6.790;2023-07-13T00:35:23;10.80;;;2.97;;
58412;SDS011;44209;52.952;6.790;2023-07-13T00:37:48;10.57;;;3.42;;
58412;SDS011;44209;52.952;6.790;2023-07-13T00:40:15;8.75;;;2.88;;
58412;SDS011;44209;52.952;6.790;2023-07-13T00:42:41;7.07;;;3.30;;
58412;SDS011;44209;52.952;6.790;2023-07-13T00:46:09;6.40;;;2.90;;
58412;SDS011;44209;52.952;6.790;2023-07-13T00:47:54;8.18;;;3.92;;
58412;SDS011;44209;52.952;6.790;2023-07-13T00:50:22;9.85;;;3.58;;
58412;SDS011;44209;52.952;6.790;2023-07-13T00:52:50;9.20;;;3.30;;
58412;SDS011;44209;52.952;6.790;2023-07-13T00:55:18;9.00;;;3.25;;
58412;SDS011;44209;52.952;6.790;2023-07-13T00:57:46;10.80;;;3.50;;
58412;SDS011;44209;52.952;6.790;2023-07-13T01:00:12;5.28;;;2.90;;
58412;SDS011;44209;52.952;6.790;2023-07-13T01:02:41;8.23;;;3.28;;
58412;SDS011;44209;52.952;6.790;2023-07-13T01:05:12;9.20;;;3.40;;
58412;SDS011;44209;52.952;6.790;2023-07-13T01:07:41;9.10;;;3.65;;
58412;SDS011;44209;52.952;6.790;2023-07-13T01:10:09;7.28;;;3.00;;
58412;SDS011;44209;52.952;6.790;2023-07-13T01:12:36;6.43;;;3.20;;
58412;SDS011;44209;52.952;6.790;2023-07-13T01:15:02;7.30;;;3.25;;
58412;SDS011;44209;52.952;6.790;2023-07-13T01:17:29;8.07;;;3.45;;
58412;SDS011;44209;52.952;6.790;2023-07-13T01:19:58;8.05;;;3.38;;
58412;SDS011;44209;52.952;6.790;2023-07-13T01:22:25;10.75;;;3.30;;
58412;SDS011;44209;52.952;6.790;2023-07-13T01:24:52;8.35;;;3.50;;
58412;SDS011;44209;52.952;6.790;2023-07-13T01:27:23;8.98;;;3.40;;
58412;SDS011;44209;52.952;6.790;2023-07-13T01:29:51;9.45;;;4.05;;
58412;SDS011;44209;52.952;6.790;2023-07-13T01:32:19;8.95;;;3.38;;
58412;SDS011;44209;52.952;6.790;2023-07-13T01:34:50;5.75;;;3.40;;
58412;SDS011;44209;52.952;6.790;2023-07-13T01:37:19;8.65;;;3.28;;
58412;SDS011;44209;52.952;6.790;2023-07-13T01:39:45;9.55;;;3.65;;
58412;SDS011;44209;52.952;6.790;2023-07-13T01:42:12;9.15;;;3.58;;
58412;SDS011;44209;52.952;6.790;2023-07-13T01:44:38;7.13;;;3.47;;
58412;SDS011;44209;52.952;6.790;2023-07-13T01:47:03;15.25;;;3.80;;
58412;SDS011;44209;52.952;6.790;2023-07-13T01:49:29;8.75;;;3.22;;
58412;SDS011;44209;52.952;6.790;2023-07-13T01:51:55;11.38;;;4.38;;
58412;SDS011;44209;52.952;6.790;2023-07-13T01:54:21;12.32;;;3.78;;
58412;SDS011;44209;52.952;6.790;2023-07-13T01:56:46;8.65;;;3.40;;
58412;SDS011;44209;52.952;6.790;2023-07-13T01:59:12;9.18;;;3.22;;
58412;SDS011;44209;52.952;6.790;2023-07-13T02:01:38;8.13;;;3.38;;
58412;SDS011;44209;52.952;6.790;2023-07-13T02:04:04;8.68;;;3.65;;
58412;SDS011;44209;52.952;6.790;2023-07-13T02:06:29;7.03;;;3.17;;
58412;SDS011;44209;52.952;6.790;2023-07-13T02:08:55;9.60;;;3.80;;
58412;SDS011;44209;52.952;6.790;2023-07-13T02:11:21;10.93;;;3.88;;
58412;SDS011;44209;52.952;6.790;2023-07-13T02:13:47;11.10;;;3.83;;
58412;SDS011;44209;52.952;6.790;2023-07-13T02:16:12;11.15;;;3.88;;
58412;SDS011;44209;52.952;6.790;2023-07-13T02:18:38;8.35;;;3.30;;
58412;SDS011;44209;52.952;6.790;2023-07-13T02:21:04;7.88;;;3.70;;
58412;SDS011;44209;52.952;6.790;2023-07-13T02:23:29;10.27;;;3.85;;
58412;SDS011;44209;52.952;6.790;2023-07-13T02:25:59;9.57;;;3.72;;
58412;SDS011;44209;52.952;6.790;2023-07-13T02:28:27;10.82;;;3.80;;
58412;SDS011;44209;52.952;6.790;2023-07-13T02:30:53;8.52;;;3.60;;
58412;SDS011;44209;52.952;6.790;2023-07-13T02:33:19;12.18;;;4.00;;
58412;SDS011;44209;52.952;6.790;2023-07-13T02:35:45;7.57;;;3.65;;
58412;SDS011;44209;52.952;6.790;2023-07-13T02:38:10;8.27;;;4.00;;
58412;SDS011;44209;52.952;6.790;2023-07-13T02:40:36;13.77;;;4.00;;
58412;SDS011;44209;52.952;6.790;2023-07-13T02:43:03;9.95;;;3.83;;
58412;SDS011;44209;52.952;6.790;2023-07-13T02:45:29;11.05;;;3.70;;
58412;SDS011;44209;52.952;6.790;2023-07-13T02:47:55;10.13;;;3.75;;
58412;SDS011;44209;52.952;6.790;2023-07-13T02:50:20;9.88;;;3.80;;
58412;SDS011;44209;52.952;6.790;2023-07-13T02:52:46;10.10;;;4.20;;
58412;SDS011;44209;52.952;6.790;2023-07-13T02:55:12;12.18;;;3.95;;
58412;SDS011;44209;52.952;6.790;2023-07-13T02:57:38;7.10;;;3.78;;
58412;SDS011;44209;52.952;6.790;2023-07-13T03:00:03;9.40;;;3.55;;
58412;SDS011;44209;52.952;6.790;2023-07-13T03:02:33;11.02;;;4.00;;
58412;SDS011;44209;52.952;6.790;2023-07-13T03:04:59;12.23;;;4.25;;
58412;SDS011;44209;52.952;6.790;2023-07-13T03:07:25;10.93;;;4.07;;
58412;SDS011;44209;52.952;6.790;2023-07-13T03:09:54;11.32;;;3.97;;
58412;SDS011;44209;52.952;6.790;2023-07-13T03:12:23;16.13;;;4.55;;
58412;SDS011;44209;52.952;6.790;2023-07-13T03:14:49;10.02;;;3.60;;
58412;SDS011;44209;52.952;6.790;2023-07-13T03:17:15;7.00;;;3.47;;
58412;SDS011;44209;52.952;6.790;2023-07-13T03:19:41;8.25;;;3.40;;
58412;SDS011;44209;52.952;6.790;2023-07-13T03:22:07;8.93;;;3.53;;
58412;SDS011;44209;52.952;6.790;2023-07-13T03:24:33;13.43;;;4.30;;
58412;SDS011;44209;52.952;6.790;2023-07-13T03:27:01;10.35;;;3.78;;
58412;SDS011;44209;52.952;6.790;2023-07-13T03:29:29;10.98;;;3.92;;
58412;SDS011;44209;52.952;6.790;2023-07-13T03:31:55;6.57;;;3.60;;
58412;SDS011;44209;52.952;6.790;2023-07-13T03:34:21;13.73;;;4.05;;
58412;SDS011;44209;52.952;6.790;2023-07-13T03:36:46;9.57;;;3.60;;
58412;SDS011;44209;52.952;6.790;2023-07-13T03:39:12;11.98;;;4.05;;
58412;SDS011;44209;52.952;6.790;2023-07-13T03:41:38;11.85;;;4.50;;
58412;SDS011;44209;52.952;6.790;2023-07-13T03:44:03;11.00;;;3.63;;
58412;SDS011;44209;52.952;6.790;2023-07-13T03:46:29;10.82;;;4.18;;
58412;SDS011;44209;52.952;6.790;2023-07-13T03:48:55;13.65;;;4.53;;
58412;SDS011;44209;52.952;6.790;2023-07-13T03:51:21;11.45;;;3.75;;
58412;SDS011;44209;52.952;6.790;2023-07-13T03:53:48;14.30;;;4.32;;
58412;SDS011;44209;52.952;6.790;2023-07-13T03:56:14;8.45;;;4.13;;
58412;SDS011;44209;52.952;6.790;2023-07-13T03:58:41;10.82;;;4.07;;
58412;SDS011;44209;52.952;6.790;2023-07-13T04:01:09;14.30;;;4.50;;
58412;SDS011;44209;52.952;6.790;2023-07-13T04:03:36;11.52;;;4.50;;
58412;SDS011;44209;52.952;6.790;2023-07-13T04:06:02;17.05;;;4.85;;
58412;SDS011;44209;52.952;6.790;2023-07-13T04:08:31;10.02;;;3.95;;
58412;SDS011;44209;52.952;6.790;2023-07-13T04:10:58;11.82;;;4.10;;
58412;SDS011;44209;52.952;6.790;2023-07-13T04:13:25;16.65;;;4.82;;
58412;SDS011;44209;52.952;6.790;2023-07-13T04:15:51;9.43;;;4.15;;
58412;SDS011;44209;52.952;6.790;2023-07-13T04:18:17;17.10;;;4.60;;
58412;SDS011;44209;52.952;6.790;2023-07-13T04:20:44;10.13;;;4.50;;
58412;SDS011;44209;52.952;6.790;2023-07-13T04:23:14;11.80;;;4.32;;
58412;SDS011;44209;52.952;6.790;2023-07-13T04:25:48;14.77;;;5.03;;
58412;SDS011;44209;52.952;6.790;2023-07-13T04:28:17;14.30;;;4.88;;
58412;SDS011;44209;52.952;6.790;2023-07-13T04:30:48;14.27;;;5.25;;
58412;SDS011;44209;52.952;6.790;2023-07-13T04:33:14;12.48;;;4.97;;
58412;SDS011;44209;52.952;6.790;2023-07-13T04:35:40;15.30;;;4.85;;
58412;SDS011;44209;52.952;6.790;2023-07-13T04:38:06;10.80;;;4.88;;
58412;SDS011;44209;52.952;6.790;2023-07-13T04:40:32;12.10;;;4.78;;
58412;SDS011;44209;52.952;6.790;2023-07-13T04:42:58;14.90;;;4.75;;
58412;SDS011;44209;52.952;6.790;2023-07-13T04:45:24;16.20;;;4.82;;
58412;SDS011;44209;52.952;6.790;2023-07-13T04:47:50;10.57;;;4.80;;
58412;SDS011;44209;52.952;6.790;2023-07-13T04:50:15;11.00;;;4.93;;
58412;SDS011;44209;52.952;6.790;2023-07-13T04:52:46;13.35;;;5.20;;
58412;SDS011;44209;52.952;6.790;2023-07-13T04:55:11;14.68;;;4.90;;
58412;SDS011;44209;52.952;6.790;2023-07-13T04:57:37;13.60;;;5.57;;
58412;SDS011;44209;52.952;6.790;2023-07-13T05:00:03;14.20;;;5.68;;
58412;SDS011;44209;52.952;6.790;2023-07-13T05:02:30;11.25;;;4.95;;
58412;SDS011;44209;52.952;6.790;2023-07-13T05:04:56;15.35;;;5.20;;
58412;SDS011;44209;52.952;6.790;2023-07-13T05:07:22;10.93;;;4.72;;
58412;SDS011;44209;52.952;6.790;2023-07-13T05:09:48;15.85;;;5.45;;
58412;SDS011;44209;52.952;6.790;2023-07-13T05:12:14;11.10;;;4.97;;
58412;SDS011;44209;52.952;6.790;2023-07-13T05:14:39;10.52;;;5.00;;
58412;SDS011;44209;52.952;6.790;2023-07-13T05:17:05;13.57;;;5.57;;
58412;SDS011;44209;52.952;6.790;2023-07-13T05:19:31;9.75;;;5.05;;
58412;SDS011;44209;52.952;6.790;2023-07-13T05:21:57;10.07;;;4.82;;
58412;SDS011;44209;52.952;6.790;2023-07-13T05:24:22;13.85;;;5.35;;
58412;SDS011;44209;52.952;6.790;2023-07-13T05:26:48;12.07;;;5.13;;
58412;SDS011;44209;52.952;6.790;2023-07-13T05:29:14;11.10;;;4.68;;
58412;SDS011;44209;52.952;6.790;2023-07-13T05:31:40;12.98;;;4.70;;
58412;SDS011;44209;52.952;6.790;2023-07-13T05:34:06;12.90;;;4.88;;
58412;SDS011;44209;52.952;6.790;2023-07-13T05:36:31;9.02;;;4.63;;
58412;SDS011;44209;52.952;6.790;2023-07-13T05:38:57;12.02;;;5.03;;
58412;SDS011;44209;52.952;6.790;2023-07-13T05:41:23;12.27;;;4.72;;
58412;SDS011;44209;52.952;6.790;2023-07-13T05:43:48;14.95;;;4.85;;
58412;SDS011;44209;52.952;6.790;2023-07-13T05:46:14;12.32;;;5.32;;
58412;SDS011;44209;52.952;6.790;2023-07-13T05:48:40;15.52;;;4.93;;
58412;SDS011;44209;52.952;6.790;2023-07-13T05:51:06;10.30;;;4.80;;
58412;SDS011;44209;52.952;6.790;2023-07-13T05:53:32;11.95;;;4.88;;
58412;SDS011;44209;52.952;6.790;2023-07-13T05:55:58;12.68;;;5.07;;
58412;SDS011;44209;52.952;6.790;2023-07-13T05:58:24;13.57;;;4.68;;
58412;SDS011;44209;52.952;6.790;2023-07-13T06:00:57;12.23;;;5.32;;
58412;SDS011;44209;52.952;6.790;2023-07-13T06:03:29;11.20;;;4.53;;
58412;SDS011;44209;52.952;6.790;2023-07-13T06:05:55;15.55;;;5.22;;
58412;SDS011;44209;52.952;6.790;2023-07-13T06:08:20;15.23;;;5.07;;
58412;SDS011;44209;52.952;6.790;2023-07-13T06:10:46;11.65;;;5.15;;
58412;SDS011;44209;52.952;6.790;2023-07-13T06:13:12;11.82;;;4.72;;
58412;SDS011;44209;52.952;6.790;2023-07-13T06:15:38;13.95;;;5.20;;
58412;SDS011;44209;52.952;6.790;2023-07-13T06:18:03;11.52;;;4.60;;
58412;SDS011;44209;52.952;6.790;2023-07-13T06:20:29;10.32;;;4.68;;
58412;SDS011;44209;52.952;6.790;2023-07-13T06:22:55;9.25;;;5.20;;
58412;SDS011;44209;52.952;6.790;2023-07-13T06:25:21;9.55;;;4.63;;
58412;SDS011;44209;52.952;6.790;2023-07-13T06:27:46;15.38;;;4.60;;
58412;SDS011;44209;52.952;6.790;2023-07-13T06:30:12;10.13;;;4.72;;
58412;SDS011;44209;52.952;6.790;2023-07-13T06:32:38;8.63;;;4.30;;
58412;SDS011;44209;52.952;6.790;2023-07-13T06:35:04;9.95;;;4.35;;
58412;SDS011;44209;52.952;6.790;2023-07-13T06:37:30;12.18;;;5.07;;
58412;SDS011;44209;52.952;6.790;2023-07-13T06:39:56;12.45;;;5.10;;
58412;SDS011;44209;52.952;6.790;2023-07-13T06:42:22;8.43;;;4.47;;
58412;SDS011;44209;52.952;6.790;2023-07-13T06:44:47;8.18;;;4.32;;
58412;SDS011;44209;52.952;6.790;2023-07-13T06:47:13;10.70;;;4.75;;
58412;SDS011;44209;52.952;6.790;2023-07-13T06:49:38;9.65;;;4.43;;
58412;SDS011;44209;52.952;6.790;2023-07-13T06:52:04;8.88;;;4.03;;
58412;SDS011;44209;52.952;6.790;2023-07-13T06:54:30;12.68;;;4.68;;
58412;SDS011;44209;52.952;6.790;2023-07-13T06:56:56;11.55;;;4.43;;
58412;SDS011;44209;52.952;6.790;2023-07-13T06:59:22;10.68;;;4.50;;
58412;SDS011;44209;52.952;6.790;2023-07-13T07:01:47;9.85;;;4.25;;
58412;SDS011;44209;52.952;6.790;2023-07-13T07:04:13;10.35;;;4.22;;
58412;SDS011;44209;52.952;6.790;2023-07-13T07:06:39;11.13;;;3.75;;
58412;SDS011;44209;52.952;6.790;2023-07-13T07:09:04;8.98;;;3.60;;
58412;SDS011;44209;52.952;6.790;2023-07-13T07:11:30;10.13;;;3.47;;
58412;SDS011;44209;52.952;6.790;2023-07-13T07:13:56;9.38;;;3.80;;
58412;SDS011;44209;52.952;6.790;2023-07-13T07:16:21;13.98;;;4.47;;
58412;SDS011;44209;52.952;6.790;2023-07-13T07:18:49;9.13;;;3.85;;
58412;SDS011;44209;52.952;6.790;2023-07-13T07:21:15;9.25;;;3.70;;
58412;SDS011;44209;52.952;6.790;2023-07-13T07:23:41;9.25;;;3.85;;
58412;SDS011;44209;52.952;6.790;2023-07-13T07:26:07;8.20;;;3.80;;
58412;SDS011;44209;52.952;6.790;2023-07-13T07:28:35;9.73;;;4.50;;
58412;SDS011;44209;52.952;6.790;2023-07-13T07:31:01;9.10;;;4.18;;
58412;SDS011;44209;52.952;6.790;2023-07-13T07:33:27;9.80;;;4.38;;
58412;SDS011;44209;52.952;6.790;2023-07-13T07:35:53;8.35;;;4.10;;
58412;SDS011;44209;52.952;6.790;2023-07-13T07:38:18;7.63;;;4.90;;
58412;SDS011;44209;52.952;6.790;2023-07-13T07:40:44;10.18;;;4.75;;
58412;SDS011;44209;52.952;6.790;2023-07-13T07:43:11;12.55;;;4.20;;
58412;SDS011;44209;52.952;6.790;2023-07-13T07:45:38;6.07;;;3.83;;
58412;SDS011;44209;52.952;6.790;2023-07-13T07:48:05;7.25;;;4.10;;
58412;SDS011;44209;52.952;6.790;2023-07-13T07:50:31;10.57;;;4.60;;
58412;SDS011;44209;52.952;6.790;2023-07-13T07:52:57;10.02;;;4.38;;
58412;SDS011;44209;52.952;6.790;2023-07-13T07:55:23;7.20;;;4.82;;
58412;SDS011;44209;52.952;6.790;2023-07-13T07:57:52;9.90;;;4.63;;
58412;SDS011;44209;52.952;6.790;2023-07-13T08:00:18;8.38;;;4.70;;
58412;SDS011;44209;52.952;6.790;2023-07-13T08:02:44;9.98;;;5.05;;
58412;SDS011;44209;52.952;6.790;2023-07-13T08:05:10;12.23;;;5.50;;
58412;SDS011;44209;52.952;6.790;2023-07-13T08:07:37;8.93;;;4.95;;
58412;SDS011;44209;52.952;6.790;2023-07-13T08:10:04;8.20;;;4.80;;
58412;SDS011;44209;52.952;6.790;2023-07-13T08:12:36;11.20;;;5.07;;
58412;SDS011;44209;52.952;6.790;2023-07-13T08:15:03;9.90;;;5.47;;
58412;SDS011;44209;52.952;6.790;2023-07-13T08:17:30;8.88;;;4.88;;
58412;SDS011;44209;52.952;6.790;2023-07-13T08:19:56;9.02;;;4.57;;
58412;SDS011;44209;52.952;6.790;2023-07-13T08:22:22;9.15;;;4.90;;
58412;SDS011;44209;52.952;6.790;2023-07-13T08:24:48;10.73;;;5.40;;
58412;SDS011;44209;52.952;6.790;2023-07-13T08:27:21;11.45;;;5.07;;
58412;SDS011;44209;52.952;6.790;2023-07-13T08:29:48;15.68;;;5.63;;
58412;SDS011;44209;52.952;6.790;2023-07-13T08:32:15;11.48;;;5.78;;
58412;SDS011;44209;52.952;6.790;2023-07-13T08:34:40;9.40;;;5.72;;
58412;SDS011;44209;52.952;6.790;2023-07-13T08:37:06;7.97;;;4.93;;
58412;SDS011;44209;52.952;6.790;2023-07-13T08:39:33;9.68;;;5.22;;
58412;SDS011;44209;52.952;6.790;2023-07-13T08:42:04;9.10;;;5.38;;
58412;SDS011;44209;52.952;6.790;2023-07-13T08:44:51;10.85;;;5.00;;
58412;SDS011;44209;52.952;6.790;2023-07-13T08:47:39;9.40;;;4.95;;
58412;SDS011;44209;52.952;6.790;2023-07-13T08:50:19;12.30;;;5.32;;
58412;SDS011;44209;52.952;6.790;2023-07-13T08:52:49;8.98;;;4.97;;
58412;SDS011;44209;52.952;6.790;2023-07-13T08:55:18;8.02;;;4.13;;
58412;SDS011;44209;52.952;6.790;2023-07-13T09:00:19;8.68;;;4.40;;
58412;SDS011;44209;52.952;6.790;2023-07-13T09:02:46;9.27;;;4.85;;
58412;SDS011;44209;52.952;6.790;2023-07-13T09:05:22;9.32;;;4.53;;
58412;SDS011;44209;52.952;6.790;2023-07-13T09:08:31;5.00;;;3.90;;
58412;SDS011;44209;52.952;6.790;2023-07-13T09:13:40;4.75;;;3.03;;
58412;SDS011;44209;52.952;6.790;2023-07-13T09:16:26;6.47;;;3.80;;
58412;SDS011;44209;52.952;6.790;2023-07-13T09:18:56;5.53;;;3.45;;
58412;SDS011;44209;52.952;6.790;2023-07-13T09:21:34;8.73;;;3.65;;
58412;SDS011;44209;52.952;6.790;2023-07-13T09:24:21;7.07;;;3.80;;
58412;SDS011;44209;52.952;6.790;2023-07-13T09:27:03;7.38;;;4.20;;
58412;SDS011;44209;52.952;6.790;2023-07-13T09:29:42;8.20;;;4.20;;
58412;SDS011;44209;52.952;6.790;2023-07-13T09:32:21;10.05;;;4.90;;
58412;SDS011;44209;52.952;6.790;2023-07-13T09:34:50;7.28;;;4.97;;
58412;SDS011;44209;52.952;6.790;2023-07-13T09:37:18;10.35;;;4.80;;
58412;SDS011;44209;52.952;6.790;2023-07-13T09:39:53;9.80;;;4.40;;
58412;SDS011;44209;52.952;6.790;2023-07-13T09:42:22;7.72;;;4.65;;
58412;SDS011;44209;52.952;6.790;2023-07-13T09:44:57;9.30;;;5.72;;
58412;SDS011;44209;52.952;6.790;2023-07-13T09:47:28;15.88;;;6.47;;
58412;SDS011;44209;52.952;6.790;2023-07-13T09:49:59;11.98;;;6.13;;
58412;SDS011;44209;52.952;6.790;2023-07-13T09:55:51;4.22;;;2.78;;
58412;SDS011;44209;52.952;6.790;2023-07-13T09:58:03;3.45;;;2.38;;
58412;SDS011;44209;52.952;6.790;2023-07-13T10:00:30;4.45;;;2.47;;
58412;SDS011;44209;52.952;6.790;2023-07-13T10:08:02;3.75;;;3.33;;
58412;SDS011;44209;52.952;6.790;2023-07-13T10:10:28;4.53;;;3.08;;
58412;SDS011;44209;52.952;6.790;2023-07-13T10:12:54;4.25;;;3.10;;
58412;SDS011;44209;52.952;6.790;2023-07-13T10:15:23;3.17;;;2.50;;
58412;SDS011;44209;52.952;6.790;2023-07-13T10:17:51;2.70;;;2.50;;
58412;SDS011;44209;52.952;6.790;2023-07-13T10:20:20;2.85;;;2.30;;
58412;SDS011;44209;52.952;6.790;2023-07-13T10:23:02;2.63;;;2.40;;
58412;SDS011;44209;52.952;6.790;2023-07-13T10:25:37;2.70;;;2.50;;
58412;SDS011;44209;52.952;6.790;2023-07-13T10:30:54;5.00;;;2.30;;
58412;SDS011;44209;52.952;6.790;2023-07-13T10:33:23;3.30;;;2.00;;
58412;SDS011;44209;52.952;6.790;2023-07-13T10:35:50;3.50;;;2.47;;
58412;SDS011;44209;52.952;6.790;2023-07-13T10:38:21;2.65;;;2.30;;
58412;SDS011;44209;52.952;6.790;2023-07-13T10:41:01;3.30;;;2.50;;
58412;SDS011;44209;52.952;6.790;2023-07-13T10:46:05;3.63;;;2.80;;
58412;SDS011;44209;52.952;6.790;2023-07-13T10:48:33;4.55;;;3.03;;
58412;SDS011;44209;52.952;6.790;2023-07-13T10:51:02;3.08;;;2.78;;
58412;SDS011;44209;52.952;6.790;2023-07-13T10:53:35;3.97;;;2.97;;
58412;SDS011;44209;52.952;6.790;2023-07-13T10:56:05;4.78;;;3.47;;
58412;SDS011;44209;52.952;6.790;2023-07-13T10:58:44;3.97;;;3.05;;
58412;SDS011;44209;52.952;6.790;2023-07-13T11:01:13;3.75;;;3.22;;
58412;SDS011;44209;52.952;6.790;2023-07-13T11:06:18;6.72;;;4.18;;
58412;SDS011;44209;52.952;6.790;2023-07-13T11:09:18;6.13;;;3.95;;
58412;SDS011;44209;52.952;6.790;2023-07-13T11:11:53;4.97;;;4.13;;
58412;SDS011;44209;52.952;6.790;2023-07-13T11:14:26;8.10;;;4.70;;
58412;SDS011;44209;52.952;6.790;2023-07-13T11:19:52;7.63;;;4.13;;
58412;SDS011;44209;52.952;6.790;2023-07-13T11:22:25;8.00;;;4.82;;
58412;SDS011;44209;52.952;6.790;2023-07-13T11:25:21;8.65;;;4.93;;
58412;SDS011;44209;52.952;6.790;2023-07-13T11:33:23;7.60;;;5.72;;
58412;SDS011;44209;52.952;6.790;2023-07-13T11:35:53;6.15;;;4.80;;
58412;SDS011;44209;52.952;6.790;2023-07-13T11:41:17;8.15;;;4.72;;
58412;SDS011;44209;52.952;6.790;2023-07-13T11:46:15;9.32;;;4.50;;
58412;SDS011;44209;52.952;6.790;2023-07-13T11:48:45;7.27;;;4.50;;
58412;SDS011;44209;52.952;6.790;2023-07-13T11:51:18;5.78;;;4.13;;
58412;SDS011;44209;52.952;6.790;2023-07-13T11:54:06;10.20;;;4.10;;
58412;SDS011;44209;52.952;6.790;2023-07-13T11:56:42;6.43;;;4.38;;
58412;SDS011;44209;52.952;6.790;2023-07-13T11:59:08;7.43;;;5.57;;
58412;SDS011;44209;52.952;6.790;2023-07-13T12:01:42;7.43;;;5.15;;
58412;SDS011;44209;52.952;6.790;2023-07-13T12:04:19;7.22;;;5.30;;
58412;SDS011;44209;52.952;6.790;2023-07-13T12:06:47;6.25;;;5.28;;
58412;SDS011;44209;52.952;6.790;2023-07-13T12:09:25;7.78;;;5.32;;
58412;SDS011;44209;52.952;6.790;2023-07-13T12:11:52;5.00;;;4.28;;
58412;SDS011;44209;52.952;6.790;2023-07-13T12:14:19;5.78;;;4.70;;
58412;SDS011;44209;52.952;6.790;2023-07-13T12:16:45;5.80;;;4.20;;
58412;SDS011;44209;52.952;6.790;2023-07-13T12:19:27;6.18;;;4.63;;
58412;SDS011;44209;52.952;6.790;2023-07-13T12:21:57;5.75;;;4.85;;
58412;SDS011;44209;52.952;6.790;2023-07-13T12:24:24;7.47;;;4.70;;
58412;SDS011;44209;52.952;6.790;2023-07-13T12:26:58;6.28;;;4.00;;
58412;SDS011;44209;52.952;6.790;2023-07-13T12:29:26;5.53;;;3.63;;
58412;SDS011;44209;52.952;6.790;2023-07-13T12:31:52;6.47;;;3.80;;
58412;SDS011;44209;52.952;6.790;2023-07-13T12:34:18;7.25;;;3.78;;
58412;SDS011;44209;52.952;6.790;2023-07-13T12:36:56;7.43;;;4.40;;
58412;SDS011;44209;52.952;6.790;2023-07-13T12:39:43;6.88;;;4.43;;
58412;SDS011;44209;52.952;6.790;2023-07-13T12:42:27;5.40;;;3.67;;
58412;SDS011;44209;52.952;6.790;2023-07-13T12:47:22;4.43;;;3.00;;
58412;SDS011;44209;52.952;6.790;2023-07-13T12:49:49;6.05;;;3.03;;
58412;SDS011;44209;52.952;6.790;2023-07-13T12:52:27;3.63;;;2.15;;
58412;SDS011;44209;52.952;6.790;2023-07-13T12:54:56;4.57;;;2.45;;
58412;SDS011;44209;52.952;6.790;2023-07-13T12:57:24;5.10;;;2.03;;
58412;SDS011;44209;52.952;6.790;2023-07-13T12:59:52;3.38;;;2.05;;
58412;SDS011;44209;52.952;6.790;2023-07-13T13:02:32;3.80;;;1.90;;
58412;SDS011;44209;52.952;6.790;2023-07-13T13:05:01;3.50;;;2.00;;
58412;SDS011;44209;52.952;6.790;2023-07-13T13:07:29;5.90;;;2.05;;
58412;SDS011;44209;52.952;6.790;2023-07-13T13:09:55;3.10;;;1.73;;
58412;SDS011;44209;52.952;6.790;2023-07-13T13:12:21;4.97;;;2.10;;
58412;SDS011;44209;52.952;6.790;2023-07-13T13:14:50;3.65;;;1.75;;
58412;SDS011;44209;52.952;6.790;2023-07-13T13:17:24;3.92;;;1.80;;
58412;SDS011;44209;52.952;6.790;2023-07-13T13:19:55;5.65;;;1.58;;
58412;SDS011;44209;52.952;6.790;2023-07-13T13:22:22;3.80;;;1.60;;
58412;SDS011;44209;52.952;6.790;2023-07-13T13:24:48;1.80;;;1.50;;
58412;SDS011;44209;52.952;6.790;2023-07-13T13:27:15;2.58;;;1.90;;
58412;SDS011;44209;52.952;6.790;2023-07-13T13:32:12;2.35;;;1.60;;
58412;SDS011;44209;52.952;6.790;2023-07-13T13:34:39;2.20;;;1.65;;
58412;SDS011;44209;52.952;6.790;2023-07-13T13:37:09;3.97;;;1.90;;
58412;SDS011;44209;52.952;6.790;2023-07-13T13:39:46;4.03;;;1.67;;
58412;SDS011;44209;52.952;6.790;2023-07-13T13:42:12;4.60;;;1.70;;
58412;SDS011;44209;52.952;6.790;2023-07-13T13:44:38;4.40;;;1.77;;
58412;SDS011;44209;52.952;6.790;2023-07-13T13:47:07;4.13;;;1.70;;
58412;SDS011;44209;52.952;6.790;2023-07-13T13:49:46;3.28;;;1.75;;
58412;SDS011;44209;52.952;6.790;2023-07-13T13:52:12;2.20;;;1.63;;
58412;SDS011;44209;52.952;6.790;2023-07-13T13:54:38;3.30;;;1.75;;
58412;SDS011;44209;52.952;6.790;2023-07-13T13:57:03;6.72;;;1.60;;
58412;SDS011;44209;52.952;6.790;2023-07-13T13:59:30;2.78;;;1.58;;
58412;SDS011;44209;52.952;6.790;2023-07-13T14:01:57;3.30;;;1.60;;
58412;SDS011;44209;52.952;6.790;2023-07-13T14:04:25;3.05;;;1.65;;
58412;SDS011;44209;52.952;6.790;2023-07-13T14:06:51;4.18;;;1.52;;
58412;SDS011;44209;52.952;6.790;2023-07-13T14:09:18;4.47;;;1.70;;
58412;SDS011;44209;52.952;6.790;2023-07-13T14:11:44;4.07;;;1.50;;
58412;SDS011;44209;52.952;6.790;2023-07-13T14:14:16;3.10;;;1.45;;
58412;SDS011;44209;52.952;6.790;2023-07-13T14:16:44;4.35;;;1.60;;
58412;SDS011;44209;52.952;6.790;2023-07-13T14:19:11;2.55;;;1.73;;
58412;SDS011;44209;52.952;6.790;2023-07-13T14:21:39;2.60;;;1.40;;
58412;SDS011;44209;52.952;6.790;2023-07-13T14:24:05;2.38;;;1.58;;
58412;SDS011;44209;52.952;6.790;2023-07-13T14:26:32;2.25;;;1.50;;
58412;SDS011;44209;52.952;6.790;2023-07-13T14:29:05;2.85;;;1.58;;
58412;SDS011;44209;52.952;6.790;2023-07-13T14:31:41;2.40;;;1.35;;
58412;SDS011;44209;52.952;6.790;2023-07-13T14:34:08;2.25;;;1.40;;
58412;SDS011;44209;52.952;6.790;2023-07-13T14:36:40;2.40;;;1.50;;
58412;SDS011;44209;52.952;6.790;2023-07-13T14:39:20;3.40;;;1.48;;
58412;SDS011;44209;52.952;6.790;2023-07-13T14:41:49;3.40;;;1.60;;
58412;SDS011;44209;52.952;6.790;2023-07-13T14:44:19;5.00;;;1.77;;
58412;SDS011;44209;52.952;6.790;2023-07-13T14:46:48;4.38;;;1.80;;
58412;SDS011;44209;52.952;6.790;2023-07-13T14:49:32;3.00;;;1.70;;
58412;SDS011;44209;52.952;6.790;2023-07-13T14:52:05;4.38;;;1.77;;
58412;SDS011;44209;52.952;6.790;2023-07-13T14:54:39;2.65;;;1.70;;
58412;SDS011;44209;52.952;6.790;2023-07-13T14:57:13;3.88;;;1.83;;
58412;SDS011;44209;52.952;6.790;2023-07-13T14:59:41;3.40;;;1.80;;
58412;SDS011;44209;52.952;6.790;2023-07-13T15:04:56;6.35;;;1.95;;
58412;SDS011;44209;52.952;6.790;2023-07-13T15:07:22;2.92;;;1.40;;
58412;SDS011;44209;52.952;6.790;2023-07-13T15:09:48;3.42;;;1.40;;
58412;SDS011;44209;52.952;6.790;2023-07-13T15:12:15;4.40;;;1.85;;
58412;SDS011;44209;52.952;6.790;2023-07-13T15:14:41;4.57;;;1.83;;
58412;SDS011;44209;52.952;6.790;2023-07-13T15:17:23;2.08;;;1.40;;
58412;SDS011;44209;52.952;6.790;2023-07-13T15:19:54;2.83;;;1.80;;
58412;SDS011;44209;52.952;6.790;2023-07-13T15:22:21;2.63;;;1.45;;
58412;SDS011;44209;52.952;6.790;2023-07-13T15:24:47;3.70;;;1.52;;
58412;SDS011;44209;52.952;6.790;2023-07-13T15:27:12;3.15;;;1.70;;
58412;SDS011;44209;52.952;6.790;2023-07-13T15:29:38;2.72;;;1.90;;
58412;SDS011;44209;52.952;6.790;2023-07-13T15:32:11;3.10;;;1.60;;
58412;SDS011;44209;52.952;6.790;2023-07-13T15:34:40;5.05;;;1.48;;